Honomu, Hawaii
Current Conditions -  °F | °C
As of 3:53 AM on Wednesday 28 Jan 2015 (Local Time) from PHTO Reporting Station
Overcast Overcast  
Wind Chill: 69°   Ceiling: 4100
Heat Index: 69°   Visibility: 10mi
Dew Point: 62°   Wind: 3mph
Humidity: 78%   Direction: 230°SW
Pressure: 29.92"   Gusts: NA
Location:  19.87°N, 155.1°W
Report Text: PHTO 281353Z 23003KT 10SM OVC041 21/17 A2992 RMK AO2 SLP130 T02060167
Loading
Personal Weather Stations






























Interactive Weather Map New forecast layout! Learn more

10-Day Weather Forecast

Advertisements
Track Severe Weather on mobile